Time;durP1;ratioP1;P1;durP2;ratioP2;P2;SDS_P1;SDS_P2;PMS_P1;PMS_P2;Temp;Humidity;BMP_temperature;BMP_pressure;BME280_temperature;BME280_humidity;BME280_pressure;Samples;Min_cycle;Max_cycle;Signal;HPM_P1;HPM_P2
2021/01/27 00:00:13;;;;;;;5.50;4.50;;;-1.60;99.90;;;;;;2064693;28;20618;-68
2021/01/27 00:01:14;;;;;;;6.10;4.40;;;-1.60;99.90;;;;;;2063853;28;20543;-67
2021/01/27 00:02:15;;;;;;;6.00;4.07;;;-1.50;99.90;;;;;;2064721;28;20199;-67
2021/01/27 00:03:17;;;;;;;5.90;4.50;;;-1.50;99.90;;;;;;2064535;28;20204;-67
2021/01/27 00:04:18;;;;;;;7.03;4.47;;;-1.50;99.90;;;;;;2064807;28;20185;-67
2021/01/27 00:05:48;;;;;;;6.50;4.53;;;-1.50;99.90;;;;;;2064626;28;20192;-67
2021/01/27 00:06:49;;;;;;;6.15;4.15;;;-1.50;99.90;;;;;;2062529;28;20207;-67
2021/01/27 00:07:49;;;;;;;6.43;4.33;;;-1.60;99.90;;;;;;2064798;28;20644;-67
2021/01/27 00:08:50;;;;;;;7.00;4.50;;;-1.60;99.90;;;;;;2064658;28;20187;-67
2021/01/27 00:09:50;;;;;;;7.70;5.37;;;-1.60;99.90;;;;;;2064662;28;20294;-67
2021/01/27 00:10:51;;;;;;;7.80;4.30;;;-1.60;99.90;;;;;;2064069;28;20176;-67
2021/01/27 00:11:52;;;;;;;5.90;4.77;;;-1.70;99.90;;;;;;2064822;28;20182;-66
2021/01/27 00:12:53;;;;;;;6.43;4.60;;;-1.70;99.90;;;;;;2064482;28;20193;-67
2021/01/27 00:13:53;;;;;;;7.00;4.60;;;-1.70;99.90;;;;;;2064670;28;20178;-67
2021/01/27 00:14:54;;;;;;;6.73;5.13;;;-1.70;99.90;;;;;;2064659;28;20922;-67
2021/01/27 00:15:55;;;;;;;7.73;4.60;;;-1.70;99.90;;;;;;2064720;28;20169;-67
2021/01/27 00:16:55;;;;;;;6.37;4.40;;;-1.80;99.90;;;;;;2064556;28;20189;-67
2021/01/27 00:17:56;;;;;;;6.30;4.23;;;-1.80;99.90;;;;;;2064484;28;20181;-67
2021/01/27 00:18:57;;;;;;;7.07;4.43;;;-1.80;99.90;;;;;;2064644;28;20180;-67
2021/01/27 00:19:57;;;;;;;5.53;4.27;;;-1.80;99.90;;;;;;2064419;28;20210;-67
2021/01/27 00:20:58;;;;;;;7.57;4.97;;;-1.80;99.90;;;;;;2063994;28;20200;-67
2021/01/27 00:21:59;;;;;;;10.93;5.43;;;-1.80;99.90;;;;;;2064517;28;20170;-67
2021/01/27 00:22:59;;;;;;;7.47;5.17;;;-1.90;99.90;;;;;;2063765;28;20213;-67
2021/01/27 00:24:00;;;;;;;8.50;5.43;;;-1.90;99.90;;;;;;2064548;28;20181;-67
2021/01/27 00:25:02;;;;;;;8.10;5.40;;;-2.00;99.90;;;;;;2064515;28;20196;-67
2021/01/27 00:26:03;;;;;;;10.07;5.57;;;-2.00;99.90;;;;;;2064590;28;20218;-67
2021/01/27 00:27:04;;;;;;;7.80;5.33;;;-2.00;99.90;;;;;;2064453;28;20184;-67
2021/01/27 00:28:07;;;;;;;9.07;5.13;;;-2.00;99.90;;;;;;2064484;28;20175;-67
2021/01/27 00:29:07;;;;;;;8.48;5.00;;;-2.00;99.90;;;;;;2064378;28;20600;-66
2021/01/27 00:30:20;;;;;;;9.70;5.57;;;-2.10;99.90;;;;;;2066700;28;20275;-67
2021/01/27 00:31:21;;;;;;;4.95;3.97;;;-2.00;99.90;;;;;;2078326;28;20567;-70
2021/01/27 00:32:22;;;;;;;7.20;4.57;;;-2.00;99.90;;;;;;2080193;28;20196;-67
2021/01/27 00:33:22;;;;;;;5.57;3.70;;;-2.00;99.90;;;;;;2080850;28;20191;-67
2021/01/27 00:34:23;;;;;;;5.20;3.87;;;-2.00;99.90;;;;;;2080735;28;20184;-67
2021/01/27 00:35:40;;;;;;;5.30;4.10;;;-2.00;99.90;;;;;;2080817;28;20663;-67
2021/01/27 00:36:41;;;;;;;6.43;3.85;;;-2.00;99.90;;;;;;2080782;28;20546;-67
2021/01/27 00:37:41;;;;;;;6.80;3.40;;;-2.00;99.90;;;;;;2080752;28;20191;-67
2021/01/27 00:38:42;;;;;;;4.97;3.93;;;-2.00;99.90;;;;;;2080769;28;20211;-67
2021/01/27 00:39:43;;;;;;;5.43;3.50;;;-2.00;99.90;;;;;;2080467;28;20214;-67
2021/01/27 00:40:44;;;;;;;6.97;3.90;;;-2.00;99.90;;;;;;2080764;28;20241;-67
2021/01/27 00:41:45;;;;;;;6.68;3.70;;;-2.00;99.90;;;;;;2080379;28;20190;-67
2021/01/27 00:42:46;;;;;;;7.50;3.88;;;-2.10;99.90;;;;;;2080755;28;20720;-67
2021/01/27 00:43:47;;;;;;;7.90;3.83;;;-2.10;99.90;;;;;;2080185;28;20656;-67
2021/01/27 00:44:47;;;;;;;4.13;3.47;;;-2.10;99.90;;;;;;2080079;28;20204;-67
2021/01/27 00:45:50;;;;;;;5.43;3.50;;;-2.10;99.90;;;;;;2080779;28;20669;-67
2021/01/27 00:46:50;;;;;;;6.50;3.70;;;-2.20;99.90;;;;;;2080075;28;20647;-67
2021/01/27 00:47:51;;;;;;;6.17;4.00;;;-2.20;99.90;;;;;;2080095;28;20267;-67
2021/01/27 00:48:52;;;;;;;5.13;3.67;;;-2.20;99.90;;;;;;2080908;28;20739;-67
2021/01/27 00:49:52;;;;;;;8.27;3.70;;;-2.20;99.90;;;;;;2080821;28;20201;-65
2021/01/27 00:50:53;;;;;;;3.83;3.20;;;-2.20;99.90;;;;;;2080102;28;20214;-65
2021/01/27 00:51:54;;;;;;;6.77;3.77;;;-2.20;99.90;;;;;;2080771;28;20213;-65
2021/01/27 00:52:54;;;;;;;6.77;3.60;;;-2.30;99.90;;;;;;2080704;28;20174;-65
2021/01/27 00:53:56;;;;;;;4.90;3.47;;;-2.30;99.90;;;;;;2080796;28;20179;-65
2021/01/27 00:54:57;;;;;;;6.93;3.63;;;-2.30;99.90;;;;;;2080777;28;20227;-65
2021/01/27 00:55:58;;;;;;;6.63;4.27;;;-2.30;99.90;;;;;;2080684;28;20741;-65
2021/01/27 00:56:58;;;;;;;4.82;3.63;;;-2.30;99.90;;;;;;2080097;28;20715;-65
2021/01/27 00:58:00;;;;;;;4.40;3.40;;;-2.30;99.90;;;;;;2080136;28;20173;-65
2021/01/27 00:59:01;;;;;;;5.05;3.88;;;-2.30;99.90;;;;;;2080734;28;20177;-65
2021/01/27 01:00:14;;;;;;;8.17;3.80;;;-2.30;99.90;;;;;;2080863;28;20206;-67
2021/01/27 01:01:15;;;;;;;5.05;3.50;;;-2.30;99.90;;;;;;2079906;28;20201;-66
2021/01/27 01:02:15;;;;;;;5.97;3.70;;;-2.30;99.90;;;;;;2080205;28;20573;-66
2021/01/27 01:03:17;;;;;;;7.93;3.83;;;-2.20;99.90;;;;;;2080006;28;20221;-65
2021/01/27 01:04:17;;;;;;;5.00;3.38;;;-2.20;99.90;;;;;;2080764;28;20184;-65
2021/01/27 01:05:28;;;;;;;4.80;3.50;;;-2.20;99.90;;;;;;2080550;28;20653;-65
2021/01/27 01:06:29;;;;;;;5.38;3.70;;;-2.30;99.90;;;;;;2080157;28;20246;-67
2021/01/27 01:07:30;;;;;;;5.90;3.47;;;-2.30;99.90;;;;;;2080099;28;20244;-67
2021/01/27 01:08:30;;;;;;;5.37;4.07;;;-2.30;99.90;;;;;;2080764;28;20181;-65
2021/01/27 01:09:31;;;;;;;6.37;3.63;;;-2.20;99.90;;;;;;2080599;28;20179;-67
2021/01/27 01:10:37;;;;;;;6.93;3.43;;;-2.30;99.90;;;;;;2080770;28;20174;-67
2021/01/27 01:11:38;;;;;;;6.93;3.80;;;-2.30;99.90;;;;;;2079890;28;20159;-67
2021/01/27 01:12:39;;;;;;;4.80;3.53;;;-2.40;99.90;;;;;;2080753;28;20270;-67
2021/01/27 01:13:39;;;;;;;5.47;3.40;;;-2.40;99.90;;;;;;2080553;28;20180;-66
2021/01/27 01:14:40;;;;;;;6.13;3.43;;;-2.50;99.90;;;;;;2080836;28;20182;-66
2021/01/27 01:15:41;;;;;;;5.10;3.47;;;-2.50;99.90;;;;;;2080554;28;20180;-65
2021/01/27 01:16:42;;;;;;;4.33;3.27;;;-2.60;99.90;;;;;;2080944;28;20788;-65
2021/01/27 01:17:43;;;;;;;6.70;3.88;;;-2.70;99.90;;;;;;2079800;28;20360;-65
2021/01/27 01:18:43;;;;;;;5.47;3.93;;;-2.70;99.90;;;;;;2080183;28;20881;-65
2021/01/27 01:19:44;;;;;;;6.57;4.00;;;-2.70;99.90;;;;;;2080531;28;20195;-65
2021/01/27 01:20:47;;;;;;;5.60;3.70;;;-2.70;99.90;;;;;;2080547;28;20170;-65
2021/01/27 01:21:48;;;;;;;4.95;3.60;;;-2.80;99.90;;;;;;2080023;28;20181;-65
2021/01/27 01:22:51;;;;;;;5.97;4.07;;;-2.80;99.90;;;;;;2080446;28;20188;-65
2021/01/27 01:23:52;;;;;;;5.47;3.85;;;-2.90;99.90;;;;;;2080417;28;20532;-65
2021/01/27 01:24:53;;;;;;;6.47;4.20;;;-2.90;99.90;;;;;;2080908;28;20251;-65
2021/01/27 01:25:53;;;;;;;5.47;3.97;;;-3.00;99.90;;;;;;2080551;28;20179;-65
2021/01/27 01:26:54;;;;;;;8.33;3.83;;;-3.10;99.90;;;;;;2080895;28;20234;-65
2021/01/27 01:27:55;;;;;;;7.40;3.83;;;-3.10;99.90;;;;;;2080374;28;20269;-65
2021/01/27 01:28:56;;;;;;;6.25;4.18;;;-3.10;99.90;;;;;;2080889;28;20189;-65
2021/01/27 01:29:57;;;;;;;5.47;3.83;;;-3.20;99.90;;;;;;2080528;28;20296;-65
2021/01/27 01:30:57;;;;;;;5.63;4.40;;;-3.20;99.90;;;;;;2080219;28;20253;-65
2021/01/27 01:31:58;;;;;;;9.43;4.80;;;-3.20;99.90;;;;;;2080597;28;20701;-65
2021/01/27 01:33:05;;;;;;;6.67;4.10;;;-3.20;99.90;;;;;;2080708;28;20618;-65
2021/01/27 01:34:06;;;;;;;7.18;4.65;;;-3.20;99.90;;;;;;2080786;28;20175;-65
2021/01/27 01:35:07;;;;;;;6.67;4.70;;;-3.20;99.90;;;;;;2082281;28;20189;-65
2021/01/27 01:36:08;;;;;;;6.68;4.40;;;-3.20;99.90;;;;;;2082060;28;20679;-65
2021/01/27 01:37:09;;;;;;;8.03;4.50;;;-3.20;99.90;;;;;;2081582;28;20187;-65
2021/01/27 01:38:11;;;;;;;7.27;4.37;;;-3.20;99.90;;;;;;2081520;28;20229;-65
2021/01/27 01:39:12;;;;;;;6.78;4.68;;;-3.10;99.90;;;;;;2081972;28;20181;-65
2021/01/27 01:40:23;;;;;;;7.50;4.40;;;-3.10;99.90;;;;;;2081827;28;20217;-65
2021/01/27 01:41:23;;;;;;;8.30;4.85;;;-3.10;99.90;;;;;;2081564;28;20173;-66
2021/01/27 01:42:24;;;;;;;8.20;4.87;;;-3.20;99.90;;;;;;2081965;28;20181;-65
2021/01/27 01:43:29;;;;;;;7.13;4.33;;;-3.10;99.90;;;;;;2081935;28;20247;-65
2021/01/27 01:44:29;;;;;;;6.35;4.28;;;-3.20;99.90;;;;;;2081907;28;20232;-65
2021/01/27 01:45:34;;;;;;;7.97;4.57;;;-3.10;99.90;;;;;;2082075;28;20184;-65
2021/01/27 01:46:35;;;;;;;5.85;4.60;;;-3.10;99.90;;;;;;2082214;28;20186;-65
2021/01/27 01:47:36;;;;;;;7.87;4.80;;;-3.10;99.90;;;;;;2082044;28;20204;-65
2021/01/27 01:49:00;;;;;;;8.60;4.60;;;-3.10;99.90;;;;;;2082120;28;20247;-65
2021/01/27 01:50:00;;;;;;;8.80;4.50;;;-3.10;99.90;;;;;;2081380;28;20192;-66
2021/01/27 01:51:32;;;;;;;6.60;4.07;;;-3.20;99.90;;;;;;2080820;28;20193;-65
2021/01/27 01:52:33;;;;;;;6.68;4.10;;;-3.20;99.90;;;;;;2077389;28;20177;-65
2021/01/27 01:53:34;;;;;;;6.40;4.20;;;-3.20;99.90;;;;;;2081252;28;20205;-65
2021/01/27 01:54:44;;;;;;;9.20;4.90;;;-3.20;99.90;;;;;;2082016;28;20288;-66
2021/01/27 01:55:44;;;;;;;6.80;4.22;;;-3.20;99.90;;;;;;2081132;28;20181;-65
2021/01/27 01:56:55;;;;;;;5.90;3.80;;;-3.20;99.90;;;;;;2081446;28;20265;-65
2021/01/27 01:57:56;;;;;;;7.65;4.53;;;-3.20;99.90;;;;;;2074579;28;20434;-65
2021/01/27 01:59:03;;;;;;;10.90;5.23;;;-3.20;99.90;;;;;;2073247;28;20184;-65
2021/01/27 02:00:08;;;;;;;8.00;4.70;;;-3.20;99.90;;;;;;2073840;28;20284;-65
2021/01/27 02:01:09;;;;;;;6.85;4.72;;;-3.20;99.90;;;;;;2073277;28;20249;-65
2021/01/27 02:02:10;;;;;;;6.73;4.73;;;-3.20;99.90;;;;;;2081394;28;20277;-65
2021/01/27 02:03:12;;;;;;;7.05;4.20;;;-3.20;99.90;;;;;;2081873;28;20198;-65
2021/01/27 02:04:13;;;;;;;7.18;4.88;;;-3.20;99.90;;;;;;2081128;28;20703;-65
2021/01/27 02:05:20;;;;;;;9.87;4.57;;;-3.20;99.90;;;;;;2081320;28;20235;-65
2021/01/27 02:06:21;;;;;;;6.43;4.53;;;-3.20;99.90;;;;;;2081216;28;20251;-65
2021/01/27 02:07:23;;;;;;;8.15;5.43;;;-3.30;99.90;;;;;;2081827;28;20181;-65
2021/01/27 02:08:24;;;;;;;6.20;4.70;;;-3.30;99.90;;;;;;2081163;28;20240;-65
2021/01/27 02:09:25;;;;;;;6.82;3.90;;;-3.30;99.90;;;;;;2081161;28;20178;-65
2021/01/27 02:10:26;;;;;;;5.90;4.10;;;-3.30;99.90;;;;;;2081876;28;20212;-65
2021/01/27 02:12:01;;;;;;;5.53;3.50;;;-3.30;99.90;;;;;;2081217;28;20177;-65
2021/01/27 02:13:19;;;;;;;4.30;3.58;;;-3.20;99.90;;;;;;2074511;28;20591;-65
2021/01/27 02:14:54;;;;;;;7.03;3.97;;;-3.20;99.90;;;;;;2081082;28;20193;-65
2021/01/27 02:16:03;;;;;;;5.25;3.65;;;-3.10;99.90;;;;;;2081171;28;20166;-65
2021/01/27 02:17:14;;;;;;;5.53;3.40;;;-3.10;99.90;;;;;;2081257;28;20175;-65
2021/01/27 02:18:55;;;;;;;6.13;3.60;;;-3.10;99.90;;;;;;2081092;28;20185;-66
2021/01/27 02:20:52;;;;;;;4.32;3.33;;;-3.10;99.90;;;;;;2078203;28;20196;-65
2021/01/27 02:22:26;;;;;;;5.20;3.58;;;-3.10;99.90;;;;;;2078362;28;20193;-65
2021/01/27 02:23:48;;;;;;;5.60;3.28;;;-3.10;99.90;;;;;;2065114;28;20319;-65
2021/01/27 02:25:49;;;;;;;4.90;3.13;;;-3.10;99.90;;;;;;2065339;28;20186;-65
2021/01/27 02:27:21;;;;;;;4.07;3.17;;;-3.10;99.90;;;;;;2070954;28;20277;-65
2021/01/27 02:29:03;;;;;;;6.32;3.20;;;-3.10;99.90;;;;;;2066059;28;20278;-65
2021/01/27 02:30:51;;;;;;;7.25;3.42;;;-3.10;99.90;;;;;;2064669;28;20212;-65
2021/01/27 02:32:34;;;;;;;4.63;3.08;;;-3.00;99.90;;;;;;2064112;28;20205;-65
2021/01/27 02:33:57;;;;;;;7.47;3.22;;;-3.10;99.90;;;;;;2065309;28;20186;-65
2021/01/27 02:35:09;;;;;;;5.65;2.90;;;-3.20;99.90;;;;;;2065352;28;20195;-65
2021/01/27 02:36:23;;;;;;;6.30;3.20;;;-3.20;99.90;;;;;;2064628;28;20178;-65
2021/01/27 02:37:57;;;;;;;4.20;2.97;;;-3.10;99.90;;;;;;2064728;28;20182;-65
2021/01/27 02:39:06;;;;;;;4.88;3.03;;;-3.20;99.90;;;;;;2044249;29;20184;-65
2021/01/27 02:40:45;;;;;;;6.10;3.55;;;-3.20;99.90;;;;;;2064456;28;20214;-66
2021/01/27 02:42:13;;;;;;;3.70;2.65;;;-3.20;99.90;;;;;;2055258;28;20662;-65
2021/01/27 02:43:24;;;;;;;4.18;3.17;;;-3.30;99.90;;;;;;2051424;28;20238;-65
2021/01/27 02:44:37;;;;;;;4.90;3.00;;;-3.30;99.90;;;;;;2057921;28;20695;-65
2021/01/27 02:45:48;;;;;;;4.80;3.20;;;-3.40;99.90;;;;;;2058071;28;20196;-65
2021/01/27 02:46:53;;;;;;;4.78;3.38;;;-3.30;99.90;;;;;;2066149;28;20222;-65
2021/01/27 02:48:18;;;;;;;4.30;3.38;;;-3.40;99.90;;;;;;2072664;28;20546;-65
2021/01/27 02:49:40;;;;;;;5.72;3.45;;;-3.40;99.90;;;;;;2064596;28;20189;-65
2021/01/27 02:50:55;;;;;;;5.93;3.30;;;-3.40;99.90;;;;;;2059608;28;20183;-65
2021/01/27 02:52:08;;;;;;;4.38;2.95;;;-3.40;99.90;;;;;;2058744;28;20182;-65
2021/01/27 02:53:22;;;;;;;4.43;3.20;;;-3.40;99.90;;;;;;2066444;28;20619;-65
2021/01/27 02:54:38;;;;;;;5.57;3.58;;;-3.40;99.90;;;;;;2071006;28;20186;-66
2021/01/27 02:56:01;;;;;;;5.20;3.17;;;-3.50;99.90;;;;;;2065275;28;20654;-65
2021/01/27 02:57:31;;;;;;;5.00;3.05;;;-3.40;99.90;;;;;;2065389;28;20202;-65
2021/01/27 02:58:38;;;;;;;5.07;3.03;;;-3.50;99.90;;;;;;2063939;28;20196;-65
2021/01/27 02:59:49;;;;;;;6.35;3.65;;;-3.50;99.90;;;;;;2065034;28;20206;-65
2021/01/27 03:01:00;;;;;;;4.47;3.17;;;-3.50;99.90;;;;;;2064164;28;20197;-65
2021/01/27 03:02:08;;;;;;;5.45;3.30;;;-3.50;99.90;;;;;;2064487;28;20179;-67
2021/01/27 03:03:21;;;;;;;6.75;4.10;;;-3.50;99.90;;;;;;2065473;28;20225;-67
2021/01/27 03:04:31;;;;;;;6.53;3.92;;;-3.50;99.90;;;;;;2070971;28;20190;-67
2021/01/27 03:05:40;;;;;;;6.90;3.85;;;-3.50;99.90;;;;;;2064444;28;20190;-67
2021/01/27 03:06:43;;;;;;;5.40;4.00;;;-3.60;99.90;;;;;;2057516;28;20634;-66
2021/01/27 03:07:50;;;;;;;8.13;4.53;;;-3.60;99.90;;;;;;2056797;28;20183;-67
2021/01/27 03:09:28;;;;;;;7.80;4.78;;;-3.60;99.90;;;;;;2064740;28;20649;-67
2021/01/27 03:10:57;;;;;;;8.02;4.28;;;-3.60;99.90;;;;;;2062618;28;20572;-66
2021/01/27 03:11:58;;;;;;;9.48;5.47;;;-3.60;99.90;;;;;;2064536;28;20167;-66
2021/01/27 03:12:59;;;;;;;10.10;5.40;;;-3.60;99.90;;;;;;2064645;28;20179;-66
2021/01/27 03:14:02;;;;;;;10.53;5.90;;;-3.60;99.90;;;;;;2064598;28;20325;-67
2021/01/27 03:15:09;;;;;;;8.23;5.90;;;-3.70;99.90;;;;;;2064535;28;20175;-66
2021/01/27 03:16:24;;;;;;;8.18;5.93;;;-3.70;99.90;;;;;;2057127;28;20175;-67
2021/01/27 03:17:29;;;;;;;8.00;5.18;;;-3.70;99.90;;;;;;2066513;28;20224;-67
2021/01/27 03:18:34;;;;;;;7.82;5.40;;;-3.70;99.90;;;;;;2064430;28;20174;-67
2021/01/27 03:19:45;;;;;;;7.55;5.40;;;-3.80;99.90;;;;;;2064631;28;20194;-66
2021/01/27 03:20:48;;;;;;;6.22;4.57;;;-3.80;99.90;;;;;;2065513;28;20237;-66
2021/01/27 03:22:01;;;;;;;8.45;5.57;;;-3.80;99.90;;;;;;2063980;28;20186;-66
2021/01/27 03:23:31;;;;;;;9.07;5.35;;;-3.80;99.90;;;;;;2065992;28;20217;-67
2021/01/27 03:24:40;;;;;;;7.25;5.03;;;-3.80;99.90;;;;;;2064357;28;20705;-67
2021/01/27 03:26:00;;;;;;;9.20;5.53;;;-3.80;99.90;;;;;;2065768;28;20171;-67
2021/01/27 03:27:14;;;;;;;7.90;5.38;;;-3.80;99.90;;;;;;2064295;28;20162;-67
2021/01/27 03:28:34;;;;;;;11.30;5.80;;;-3.80;99.90;;;;;;2064537;28;20716;-67
2021/01/27 03:30:09;;;;;;;10.18;5.50;;;-3.70;99.90;;;;;;2064332;28;20165;-67
2021/01/27 03:31:11;;;;;;;10.05;5.18;;;-3.70;99.90;;;;;;2060858;28;20181;-67
2021/01/27 03:33:04;;;;;;;8.63;5.53;;;-3.70;99.90;;;;;;2064161;28;20167;-67
2021/01/27 03:34:13;;;;;;;6.45;4.40;;;-3.70;99.90;;;;;;2059973;28;20198;-67
2021/01/27 03:35:42;;;;;;;6.10;4.43;;;-3.70;99.90;;;;;;2064207;28;20174;-67
2021/01/27 03:37:03;;;;;;;5.78;3.63;;;-3.70;99.90;;;;;;2060023;28;20163;-67
2021/01/27 03:38:20;;;;;;;9.15;4.07;;;-3.60;99.90;;;;;;2064346;28;20166;-66
2021/01/27 03:39:26;;;;;;;9.80;4.05;;;-3.60;99.90;;;;;;2064908;28;20182;-67
2021/01/27 03:40:28;;;;;;;7.72;3.95;;;-3.60;99.90;;;;;;2064065;28;20783;-66
2021/01/27 03:41:35;;;;;;;5.50;3.20;;;-3.60;99.90;;;;;;2063726;28;20225;-67
2021/01/27 03:43:05;;;;;;;6.00;4.68;;;-3.60;99.90;;;;;;2065025;28;20177;-67
2021/01/27 03:44:16;;;;;;;8.32;4.88;;;-3.60;99.90;;;;;;2068464;28;20163;-67
2021/01/27 03:45:21;;;;;;;9.82;5.85;;;-3.60;99.90;;;;;;2064103;28;20187;-67
2021/01/27 03:47:04;;;;;;;7.43;5.47;;;-3.50;99.90;;;;;;2064387;28;20190;-67
2021/01/27 03:48:08;;;;;;;8.63;4.97;;;-3.50;99.90;;;;;;2064132;28;20178;-66
2021/01/27 03:49:20;;;;;;;8.23;5.03;;;-3.50;99.90;;;;;;2064249;28;20174;-67
2021/01/27 03:50:25;;;;;;;11.13;5.70;;;-3.40;99.90;;;;;;2063894;28;20206;-67
2021/01/27 03:51:33;;;;;;;8.25;6.22;;;-3.40;99.90;;;;;;2056209;28;20208;-67
2021/01/27 03:52:45;;;;;;;9.52;5.93;;;-3.40;99.90;;;;;;2064963;28;20182;-66
2021/01/27 03:53:46;;;;;;;7.50;5.38;;;-3.40;99.90;;;;;;2064010;28;20171;-67
2021/01/27 03:54:58;;;;;;;9.07;5.95;;;-3.40;99.90;;;;;;2060501;28;20194;-66
2021/01/27 03:56:26;;;;;;;8.05;5.07;;;-3.40;99.90;;;;;;2065600;28;20201;-67
2021/01/27 03:57:36;;;;;;;8.65;5.20;;;-3.40;99.90;;;;;;2072196;28;20202;-67
2021/01/27 03:58:44;;;;;;;7.53;5.18;;;-3.40;99.90;;;;;;2072200;28;20202;-67
2021/01/27 03:59:48;;;;;;;8.43;5.70;;;-3.40;99.90;;;;;;2064774;28;20396;-67
2021/01/27 04:00:50;;;;;;;8.60;6.15;;;-3.50;99.90;;;;;;2064029;28;20543;-67
2021/01/27 04:01:54;;;;;;;7.70;5.20;;;-3.50;99.90;;;;;;2072236;28;20182;-67
2021/01/27 04:03:14;;;;;;;8.32;5.75;;;-3.50;99.90;;;;;;2071937;28;20186;-67
2021/01/27 04:04:15;;;;;;;8.40;6.03;;;-3.40;99.90;;;;;;2066606;28;20170;-67
2021/01/27 04:05:16;;;;;;;7.80;5.68;;;-3.30;99.90;;;;;;2071952;28;20732;-67
2021/01/27 04:06:17;;;;;;;8.47;5.70;;;-3.30;99.90;;;;;;2072685;28;20232;-67
2021/01/27 04:07:17;;;;;;;9.60;6.33;;;-3.30;99.90;;;;;;2072768;28;20196;-67
2021/01/27 04:08:18;;;;;;;8.27;6.23;;;-3.30;99.90;;;;;;2072836;28;20180;-66
2021/01/27 04:09:19;;;;;;;11.87;6.83;;;-3.20;99.90;;;;;;2072727;28;20181;-67
2021/01/27 04:10:20;;;;;;;12.98;7.68;;;-3.20;99.90;;;;;;2072447;28;20571;-67
2021/01/27 04:11:21;;;;;;;13.83;7.70;;;-3.20;99.90;;;;;;2072258;28;20178;-67
2021/01/27 04:12:21;;;;;;;12.13;7.50;;;-3.20;99.90;;;;;;2072637;28;20735;-66
2021/01/27 04:13:22;;;;;;;11.00;7.27;;;-3.20;99.90;;;;;;2072720;28;20273;-67
2021/01/27 04:14:23;;;;;;;15.23;8.57;;;-3.30;99.90;;;;;;2072701;28;20185;-67
2021/01/27 04:15:24;;;;;;;12.30;7.87;;;-3.30;99.90;;;;;;2072706;28;20195;-67
2021/01/27 04:16:25;;;;;;;15.33;8.60;;;-3.40;99.90;;;;;;2072643;28;20217;-67
2021/01/27 04:17:30;;;;;;;14.20;8.97;;;-3.40;99.90;;;;;;2072825;28;20255;-67
2021/01/27 04:18:31;;;;;;;11.35;7.68;;;-3.30;99.90;;;;;;2072497;28;20230;-67
2021/01/27 04:19:32;;;;;;;12.10;7.97;;;-3.30;99.90;;;;;;2072686;28;20187;-67
2021/01/27 04:20:32;;;;;;;10.97;7.63;;;-3.30;99.90;;;;;;2072584;28;20189;-66
2021/01/27 04:21:34;;;;;;;11.53;7.90;;;-3.30;99.90;;;;;;2072128;28;20189;-67
2021/01/27 04:22:34;;;;;;;12.00;7.50;;;-3.30;99.90;;;;;;2071885;28;20629;-67
2021/01/27 04:23:35;;;;;;;12.93;7.83;;;-3.30;99.90;;;;;;2072013;28;20210;-67
2021/01/27 04:24:36;;;;;;;11.80;7.70;;;-3.30;99.90;;;;;;2072620;28;20556;-67
2021/01/27 04:25:36;;;;;;;10.83;7.33;;;-3.30;99.90;;;;;;2074889;28;20182;-67
2021/01/27 04:26:37;;;;;;;10.70;7.53;;;-3.20;99.90;;;;;;2072460;28;20186;-67
2021/01/27 04:27:38;;;;;;;9.70;7.33;;;-3.20;99.90;;;;;;2072789;28;20190;-67
2021/01/27 04:28:39;;;;;;;12.20;7.77;;;-3.20;99.90;;;;;;2072544;28;20264;-67
2021/01/27 04:29:39;;;;;;;11.67;8.23;;;-3.20;99.90;;;;;;2072718;28;20188;-67
2021/01/27 04:30:40;;;;;;;11.50;8.23;;;-3.10;99.90;;;;;;2071881;28;20183;-67
2021/01/27 04:31:41;;;;;;;12.07;7.30;;;-3.10;99.90;;;;;;2071311;28;20190;-67
2021/01/27 04:32:42;;;;;;;13.50;8.27;;;-3.10;99.90;;;;;;2072496;28;20182;-66
2021/01/27 04:33:43;;;;;;;10.35;7.43;;;-3.10;99.90;;;;;;2072642;28;20394;-67
2021/01/27 04:34:43;;;;;;;9.13;6.63;;;-3.10;99.90;;;;;;2072487;28;20296;-67
2021/01/27 04:35:44;;;;;;;8.50;5.50;;;-3.20;99.90;;;;;;2072637;28;20258;-67
2021/01/27 04:36:45;;;;;;;8.03;6.30;;;-3.10;99.90;;;;;;2072608;28;20197;-67
2021/01/27 04:37:47;;;;;;;8.93;6.57;;;-3.00;99.90;;;;;;2072687;28;20258;-67
2021/01/27 04:38:50;;;;;;;11.05;6.97;;;-3.00;99.90;;;;;;2072421;28;20418;-67
2021/01/27 04:39:50;;;;;;;9.30;6.30;;;-3.00;99.90;;;;;;2072407;28;20210;-67
2021/01/27 04:40:57;;;;;;;11.43;6.70;;;-3.00;99.90;;;;;;2071948;28;20185;-67
2021/01/27 04:41:58;;;;;;;12.70;7.25;;;-3.00;99.90;;;;;;2072633;28;20225;-67
2021/01/27 04:42:59;;;;;;;9.23;7.43;;;-2.90;99.90;;;;;;2071597;28;20184;-67
2021/01/27 04:44:00;;;;;;;11.48;7.60;;;-2.90;99.90;;;;;;2072182;28;20253;-67
2021/01/27 04:45:04;;;;;;;14.27;8.53;;;-2.90;99.90;;;;;;2072015;28;20198;-67
2021/01/27 04:46:35;;;;;;;10.82;7.70;;;-2.90;99.90;;;;;;2072686;28;20585;-67
2021/01/27 04:48:13;;;;;;;13.07;7.28;;;-2.90;99.90;;;;;;2071867;28;20185;-68
2021/01/27 04:49:26;;;;;;;10.52;7.18;;;-2.90;99.90;;;;;;2063803;28;20616;-67
2021/01/27 04:50:47;;;;;;;13.88;8.70;;;-2.90;99.90;;;;;;2062439;28;20175;-67
2021/01/27 04:52:06;;;;;;;12.30;6.63;;;-3.00;99.90;;;;;;2066157;28;20182;-67
2021/01/27 04:53:43;;;;;;;8.32;6.13;;;-3.00;99.90;;;;;;2072078;28;20166;-66
2021/01/27 04:55:10;;;;;;;8.07;5.38;;;-3.00;99.90;;;;;;2072001;28;20189;-67
2021/01/27 04:56:21;;;;;;;6.93;5.10;;;-3.00;99.90;;;;;;2067541;28;20193;-67
2021/01/27 04:57:57;;;;;;;8.38;6.22;;;-2.90;99.90;;;;;;2065239;28;20167;-67
2021/01/27 04:59:14;;;;;;;6.43;4.95;;;-3.00;99.90;;;;;;2072238;28;20305;-66
2021/01/27 05:01:07;;;;;;;51.15;26.10;;;-2.90;99.90;;;;;;2071930;28;20205;-67
2021/01/27 05:03:02;;;;;;;35.05;16.63;;;-2.90;99.90;;;;;;2072458;28;20178;-67
2021/01/27 05:04:49;;;;;;;8.73;6.07;;;-2.80;99.90;;;;;;2063532;28;20756;-66
2021/01/27 05:05:58;;;;;;;8.10;4.25;;;-2.80;99.90;;;;;;2072589;28;20188;-67
2021/01/27 05:07:05;;;;;;;4.65;3.08;;;-2.70;99.90;;;;;;2072576;28;20166;-67
2021/01/27 05:08:23;;;;;;;2.45;1.73;;;-2.70;99.90;;;;;;2072017;28;20158;-67
2021/01/27 05:09:40;;;;;;;3.88;2.20;;;-2.60;99.90;;;;;;2075228;28;20236;-67
2021/01/27 05:10:58;;;;;;;3.33;2.33;;;-2.50;99.90;;;;;;2073428;28;20572;-67
2021/01/27 05:12:03;;;;;;;6.60;5.28;;;-2.40;99.90;;;;;;2067647;28;20655;-67
2021/01/27 05:13:31;;;;;;;9.95;6.45;;;-2.40;99.90;;;;;;2065923;28;20204;-67
2021/01/27 05:14:33;;;;;;;8.25;5.80;;;-2.40;99.90;;;;;;2073675;28;20167;-67
2021/01/27 05:15:34;;;;;;;9.40;6.15;;;-2.50;99.90;;;;;;2074156;28;20186;-67
2021/01/27 05:16:34;;;;;;;11.75;7.97;;;-2.50;99.90;;;;;;2073447;28;20255;-67
2021/01/27 05:17:40;;;;;;;13.73;8.33;;;-2.50;99.90;;;;;;2074597;28;20205;-67
2021/01/27 05:18:41;;;;;;;9.60;7.63;;;-2.60;99.90;;;;;;2074497;28;20164;-67
2021/01/27 05:19:43;;;;;;;12.02;6.50;;;-2.60;99.90;;;;;;2074499;28;20276;-66
2021/01/27 05:20:48;;;;;;;8.80;6.30;;;-2.80;99.90;;;;;;2073249;28;20170;-66
2021/01/27 05:21:55;;;;;;;8.00;5.80;;;-2.80;99.90;;;;;;2065902;28;20652;-67
2021/01/27 05:22:57;;;;;;;9.07;5.40;;;-2.80;99.90;;;;;;2073490;28;20187;-67
2021/01/27 05:23:59;;;;;;;7.80;4.70;;;-2.80;99.90;;;;;;2074289;28;20663;-66
2021/01/27 05:24:59;;;;;;;5.18;4.38;;;-2.70;99.90;;;;;;2074612;28;20266;-67
2021/01/27 05:26:05;;;;;;;6.93;4.87;;;-2.70;99.90;;;;;;2074821;28;20185;-66
2021/01/27 05:27:31;;;;;;;10.00;5.10;;;-2.70;99.90;;;;;;2074211;28;20186;-67
2021/01/27 05:28:39;;;;;;;7.93;5.30;;;-2.70;99.90;;;;;;2071523;28;20197;-66
2021/01/27 05:30:01;;;;;;;6.07;4.63;;;-2.60;99.90;;;;;;2073578;28;20162;-67
2021/01/27 05:31:02;;;;;;;7.13;5.20;;;-2.50;99.90;;;;;;2067503;28;20217;-69
2021/01/27 05:32:11;;;;;;;6.63;4.60;;;-2.50;99.90;;;;;;2073566;28;20187;-67
2021/01/27 05:33:12;;;;;;;5.50;3.35;;;-2.40;99.90;;;;;;2074151;28;20258;-67
2021/01/27 05:34:36;;;;;;;5.10;4.00;;;-2.40;99.90;;;;;;2073669;28;20729;-66
2021/01/27 05:35:40;;;;;;;5.57;3.50;;;-2.30;99.90;;;;;;2068318;28;20440;-67
2021/01/27 05:36:48;;;;;;;4.50;3.67;;;-2.30;99.90;;;;;;2073329;28;20187;-66
2021/01/27 05:37:49;;;;;;;9.18;4.78;;;-2.40;99.90;;;;;;2073395;28;20179;-66
2021/01/27 05:38:51;;;;;;;4.83;3.60;;;-2.30;99.90;;;;;;2073254;28;20193;-66
2021/01/27 05:40:14;;;;;;;6.65;4.75;;;-2.30;99.90;;;;;;2073081;28;20249;-66
2021/01/27 05:41:29;;;;;;;5.18;4.00;;;-2.30;99.90;;;;;;2086813;23;20166;-63
2021/01/27 05:42:35;;;;;;;7.85;4.05;;;-2.30;99.90;;;;;;2081530;28;20173;-63
2021/01/27 05:43:37;;;;;;;5.30;3.38;;;-2.30;99.90;;;;;;2081419;28;20201;-63
2021/01/27 05:44:39;;;;;;;7.30;3.78;;;-2.20;99.90;;;;;;2081465;28;20185;-63
2021/01/27 05:45:47;;;;;;;5.63;3.63;;;-2.20;99.90;;;;;;2082041;28;20278;-63
2021/01/27 05:46:48;;;;;;;4.97;3.35;;;-2.20;99.90;;;;;;2082021;28;20631;-63
2021/01/27 05:47:48;;;;;;;5.23;2.90;;;-2.20;99.90;;;;;;2081985;28;20178;-63
2021/01/27 05:48:50;;;;;;;3.50;2.70;;;-2.20;99.90;;;;;;2081937;28;20610;-63
2021/01/27 05:49:52;;;;;;;4.00;2.90;;;-2.10;99.90;;;;;;2081624;28;20180;-64
2021/01/27 05:51:14;;;;;;;3.92;3.05;;;-2.10;99.90;;;;;;2080470;28;20192;-64
2021/01/27 05:52:25;;;;;;;5.75;2.60;;;-2.10;99.90;;;;;;2081566;28;20633;-64
2021/01/27 05:53:30;;;;;;;3.22;2.60;;;-2.20;99.90;;;;;;2089722;28;20177;-63
2021/01/27 05:54:31;;;;;;;5.97;2.60;;;-2.20;99.90;;;;;;2081529;28;20554;-63
2021/01/27 05:55:32;;;;;;;2.60;2.10;;;-2.20;99.90;;;;;;2081349;28;20217;-64